Aviation Digital Data Service (ADDS)

Output produced by METARs form (0327 UTC 19 August 2019)
found at http://www.aviationweather.gov/metar/data/
 
Forecast for: RPVP (PUERTO PRINCESA , PH)
Text: TAF RPVP 182300Z 1900/1924 18004KT 9999 FEW019 BKN250
Forecast period: 0000 UTC 19 August 2019 to 0000 UTC 20 August 2019
Forecast type: FROM: standard forecast or significant change
Winds: from the S (180 degrees) at 5 MPH (4 knots; 2.1 m/s)
Visibility: 6 or more miles 10+ km)
Ceiling: 25000 feet AGL
Clouds: few clouds at 1900 feet AGL
broken clouds at 25000 feet AGL
Weather: no significant weather forecast for this period
Text: TEMPO 1900/1906 25010KT FEW019 SCT080
Forecast period: 0000 to 0600 UTC 19 August 2019
Forecast type: TEMPORARY: The following changes expected for less than half the time period
Winds: from the WSW (250 degrees) at 12 MPH (10 knots; 5.1 m/s)
Visibility: missing
Ceiling: at least 12,000 feet AGL
Clouds: few clouds at 1900 feet AGL
scattered clouds at 8000 feet AGL
Weather: no significant weather forecast for this period